sensor_id;sensor_type;location;lat;lon;timestamp;P1;durP1;ratioP1;P2;durP2;ratioP2
52041;SDS011;38052;45.944;13.624;2023-06-19T00:01:05;4.97;;;3.75;;
52041;SDS011;38052;45.944;13.624;2023-06-19T00:03:32;4.82;;;3.33;;
52041;SDS011;38052;45.944;13.624;2023-06-19T00:05:58;10.85;;;4.05;;
52041;SDS011;38052;45.944;13.624;2023-06-19T00:08:24;5.93;;;3.60;;
52041;SDS011;38052;45.944;13.624;2023-06-19T00:10:50;4.57;;;3.30;;
52041;SDS011;38052;45.944;13.624;2023-06-19T00:13:18;5.72;;;3.85;;
52041;SDS011;38052;45.944;13.624;2023-06-19T00:15:44;8.63;;;3.70;;
52041;SDS011;38052;45.944;13.624;2023-06-19T00:18:11;7.57;;;3.78;;
52041;SDS011;38052;45.944;13.624;2023-06-19T00:20:37;5.25;;;3.58;;
52041;SDS011;38052;45.944;13.624;2023-06-19T00:23:04;5.72;;;3.60;;
52041;SDS011;38052;45.944;13.624;2023-06-19T00:25:35;4.40;;;3.33;;
52041;SDS011;38052;45.944;13.624;2023-06-19T00:28:02;5.57;;;3.08;;
52041;SDS011;38052;45.944;13.624;2023-06-19T00:30:28;9.32;;;4.00;;
52041;SDS011;38052;45.944;13.624;2023-06-19T00:32:57;8.73;;;4.45;;
52041;SDS011;38052;45.944;13.624;2023-06-19T00:35:25;7.22;;;3.50;;
52041;SDS011;38052;45.944;13.624;2023-06-19T00:37:53;5.00;;;3.30;;
52041;SDS011;38052;45.944;13.624;2023-06-19T00:40:29;6.20;;;3.63;;
52041;SDS011;38052;45.944;13.624;2023-06-19T00:42:56;6.63;;;3.55;;
52041;SDS011;38052;45.944;13.624;2023-06-19T00:45:22;4.00;;;2.45;;
52041;SDS011;38052;45.944;13.624;2023-06-19T00:47:49;4.93;;;3.72;;
52041;SDS011;38052;45.944;13.624;2023-06-19T00:50:16;5.95;;;2.97;;
52041;SDS011;38052;45.944;13.624;2023-06-19T00:52:43;8.35;;;3.83;;
52041;SDS011;38052;45.944;13.624;2023-06-19T00:55:09;5.78;;;3.97;;
52041;SDS011;38052;45.944;13.624;2023-06-19T00:57:36;6.93;;;3.22;;
52041;SDS011;38052;45.944;13.624;2023-06-19T01:00:04;7.68;;;3.92;;
52041;SDS011;38052;45.944;13.624;2023-06-19T01:02:32;5.30;;;3.35;;
52041;SDS011;38052;45.944;13.624;2023-06-19T01:04:58;8.82;;;3.58;;
52041;SDS011;38052;45.944;13.624;2023-06-19T01:07:29;6.15;;;4.00;;
52041;SDS011;38052;45.944;13.624;2023-06-19T01:09:59;5.30;;;3.30;;
52041;SDS011;38052;45.944;13.624;2023-06-19T01:12:37;5.75;;;3.85;;
52041;SDS011;38052;45.944;13.624;2023-06-19T01:15:05;6.47;;;4.28;;
52041;SDS011;38052;45.944;13.624;2023-06-19T01:17:32;5.60;;;3.15;;
52041;SDS011;38052;45.944;13.624;2023-06-19T01:19:58;5.97;;;3.47;;
52041;SDS011;38052;45.944;13.624;2023-06-19T01:22:31;5.85;;;3.75;;
52041;SDS011;38052;45.944;13.624;2023-06-19T01:24:57;5.57;;;2.95;;
52041;SDS011;38052;45.944;13.624;2023-06-19T01:27:24;7.80;;;3.75;;
52041;SDS011;38052;45.944;13.624;2023-06-19T01:29:50;7.28;;;3.50;;
52041;SDS011;38052;45.944;13.624;2023-06-19T01:32:20;4.68;;;3.42;;
52041;SDS011;38052;45.944;13.624;2023-06-19T01:34:49;3.88;;;2.83;;
52041;SDS011;38052;45.944;13.624;2023-06-19T01:37:16;8.07;;;3.85;;
52041;SDS011;38052;45.944;13.624;2023-06-19T01:39:43;5.25;;;2.92;;
52041;SDS011;38052;45.944;13.624;2023-06-19T01:42:10;7.00;;;2.80;;
52041;SDS011;38052;45.944;13.624;2023-06-19T01:44:37;6.28;;;3.20;;
52041;SDS011;38052;45.944;13.624;2023-06-19T01:47:10;5.93;;;2.90;;
52041;SDS011;38052;45.944;13.624;2023-06-19T01:49:37;7.50;;;3.17;;
52041;SDS011;38052;45.944;13.624;2023-06-19T01:52:03;4.10;;;3.00;;
52041;SDS011;38052;45.944;13.624;2023-06-19T01:54:29;6.45;;;3.28;;
52041;SDS011;38052;45.944;13.624;2023-06-19T01:56:56;5.30;;;3.30;;
52041;SDS011;38052;45.944;13.624;2023-06-19T01:59:23;8.60;;;3.45;;
52041;SDS011;38052;45.944;13.624;2023-06-19T02:01:50;5.88;;;3.90;;
52041;SDS011;38052;45.944;13.624;2023-06-19T02:04:16;5.88;;;2.85;;
52041;SDS011;38052;45.944;13.624;2023-06-19T02:06:42;4.88;;;3.00;;
52041;SDS011;38052;45.944;13.624;2023-06-19T02:09:09;8.77;;;3.70;;
52041;SDS011;38052;45.944;13.624;2023-06-19T02:11:35;6.75;;;3.47;;
52041;SDS011;38052;45.944;13.624;2023-06-19T02:14:02;5.75;;;3.22;;
52041;SDS011;38052;45.944;13.624;2023-06-19T02:16:28;5.63;;;3.92;;
52041;SDS011;38052;45.944;13.624;2023-06-19T02:18:55;7.85;;;4.18;;
52041;SDS011;38052;45.944;13.624;2023-06-19T02:21:22;5.80;;;3.78;;
52041;SDS011;38052;45.944;13.624;2023-06-19T02:23:48;6.22;;;4.03;;
52041;SDS011;38052;45.944;13.624;2023-06-19T02:26:15;5.22;;;3.13;;
52041;SDS011;38052;45.944;13.624;2023-06-19T02:28:41;5.78;;;3.28;;
52041;SDS011;38052;45.944;13.624;2023-06-19T02:31:08;8.00;;;3.50;;
52041;SDS011;38052;45.944;13.624;2023-06-19T02:33:35;6.93;;;3.45;;
52041;SDS011;38052;45.944;13.624;2023-06-19T02:36:01;5.07;;;3.25;;
52041;SDS011;38052;45.944;13.624;2023-06-19T02:38:28;4.13;;;2.90;;
52041;SDS011;38052;45.944;13.624;2023-06-19T02:40:54;4.38;;;3.05;;
52041;SDS011;38052;45.944;13.624;2023-06-19T02:43:22;8.10;;;3.20;;
52041;SDS011;38052;45.944;13.624;2023-06-19T02:45:48;5.43;;;3.40;;
52041;SDS011;38052;45.944;13.624;2023-06-19T02:48:15;5.35;;;3.80;;
52041;SDS011;38052;45.944;13.624;2023-06-19T02:50:41;7.55;;;2.65;;
52041;SDS011;38052;45.944;13.624;2023-06-19T02:53:08;6.47;;;3.50;;
52041;SDS011;38052;45.944;13.624;2023-06-19T02:55:34;8.60;;;3.90;;
52041;SDS011;38052;45.944;13.624;2023-06-19T02:58:01;4.70;;;3.90;;
52041;SDS011;38052;45.944;13.624;2023-06-19T03:00:28;5.63;;;3.25;;
52041;SDS011;38052;45.944;13.624;2023-06-19T03:02:54;4.97;;;2.90;;
52041;SDS011;38052;45.944;13.624;2023-06-19T03:05:21;4.80;;;3.20;;
52041;SDS011;38052;45.944;13.624;2023-06-19T03:07:48;3.65;;;2.60;;
52041;SDS011;38052;45.944;13.624;2023-06-19T03:10:15;4.85;;;2.78;;
52041;SDS011;38052;45.944;13.624;2023-06-19T03:12:41;5.20;;;3.30;;
52041;SDS011;38052;45.944;13.624;2023-06-19T03:15:08;4.90;;;3.25;;
52041;SDS011;38052;45.944;13.624;2023-06-19T03:17:34;6.82;;;3.72;;
52041;SDS011;38052;45.944;13.624;2023-06-19T03:20:01;5.75;;;3.22;;
52041;SDS011;38052;45.944;13.624;2023-06-19T03:22:27;6.70;;;3.15;;
52041;SDS011;38052;45.944;13.624;2023-06-19T03:24:53;5.72;;;3.10;;
52041;SDS011;38052;45.944;13.624;2023-06-19T03:27:19;3.70;;;3.05;;
52041;SDS011;38052;45.944;13.624;2023-06-19T03:29:46;6.80;;;2.92;;
52041;SDS011;38052;45.944;13.624;2023-06-19T03:32:12;3.42;;;2.42;;
52041;SDS011;38052;45.944;13.624;2023-06-19T03:34:39;7.80;;;3.33;;
52041;SDS011;38052;45.944;13.624;2023-06-19T03:37:05;5.82;;;3.00;;
52041;SDS011;38052;45.944;13.624;2023-06-19T03:39:31;10.40;;;2.95;;
52041;SDS011;38052;45.944;13.624;2023-06-19T03:41:58;6.75;;;3.58;;
52041;SDS011;38052;45.944;13.624;2023-06-19T03:44:24;5.00;;;3.17;;
52041;SDS011;38052;45.944;13.624;2023-06-19T03:46:51;6.22;;;3.10;;
52041;SDS011;38052;45.944;13.624;2023-06-19T03:49:17;8.23;;;3.10;;
52041;SDS011;38052;45.944;13.624;2023-06-19T03:51:43;5.28;;;3.75;;
52041;SDS011;38052;45.944;13.624;2023-06-19T03:54:09;4.78;;;3.05;;
52041;SDS011;38052;45.944;13.624;2023-06-19T03:56:35;5.63;;;3.10;;
52041;SDS011;38052;45.944;13.624;2023-06-19T03:59:02;6.40;;;2.95;;
52041;SDS011;38052;45.944;13.624;2023-06-19T04:01:28;2.80;;;2.38;;
52041;SDS011;38052;45.944;13.624;2023-06-19T04:03:54;6.68;;;3.28;;
52041;SDS011;38052;45.944;13.624;2023-06-19T04:06:20;8.65;;;3.30;;
52041;SDS011;38052;45.944;13.624;2023-06-19T04:08:47;5.88;;;3.17;;
52041;SDS011;38052;45.944;13.624;2023-06-19T04:11:14;6.40;;;3.45;;
52041;SDS011;38052;45.944;13.624;2023-06-19T04:13:40;4.93;;;3.38;;
52041;SDS011;38052;45.944;13.624;2023-06-19T04:16:07;6.93;;;3.00;;
52041;SDS011;38052;45.944;13.624;2023-06-19T04:18:33;5.82;;;2.92;;
52041;SDS011;38052;45.944;13.624;2023-06-19T04:21:00;6.50;;;2.60;;
52041;SDS011;38052;45.944;13.624;2023-06-19T04:23:26;6.57;;;2.85;;
52041;SDS011;38052;45.944;13.624;2023-06-19T04:25:53;7.97;;;2.78;;
52041;SDS011;38052;45.944;13.624;2023-06-19T04:28:19;4.07;;;2.88;;
52041;SDS011;38052;45.944;13.624;2023-06-19T04:30:46;5.25;;;3.15;;
52041;SDS011;38052;45.944;13.624;2023-06-19T04:33:13;4.72;;;3.17;;
52041;SDS011;38052;45.944;13.624;2023-06-19T04:35:39;6.75;;;3.22;;
52041;SDS011;38052;45.944;13.624;2023-06-19T04:38:07;5.13;;;2.75;;
52041;SDS011;38052;45.944;13.624;2023-06-19T04:40:33;3.60;;;2.95;;
52041;SDS011;38052;45.944;13.624;2023-06-19T04:43:01;7.38;;;3.13;;
52041;SDS011;38052;45.944;13.624;2023-06-19T04:45:27;5.60;;;2.88;;
52041;SDS011;38052;45.944;13.624;2023-06-19T04:47:54;4.25;;;2.97;;
52041;SDS011;38052;45.944;13.624;2023-06-19T04:50:20;3.63;;;2.15;;
52041;SDS011;38052;45.944;13.624;2023-06-19T04:52:47;10.45;;;2.97;;
52041;SDS011;38052;45.944;13.624;2023-06-19T04:55:15;4.43;;;3.08;;
52041;SDS011;38052;45.944;13.624;2023-06-19T04:57:41;5.03;;;3.53;;
52041;SDS011;38052;45.944;13.624;2023-06-19T05:00:08;4.93;;;2.65;;
52041;SDS011;38052;45.944;13.624;2023-06-19T05:02:39;7.40;;;3.25;;
52041;SDS011;38052;45.944;13.624;2023-06-19T05:05:08;5.72;;;3.17;;
52041;SDS011;38052;45.944;13.624;2023-06-19T05:07:35;6.65;;;3.28;;
52041;SDS011;38052;45.944;13.624;2023-06-19T05:10:01;5.50;;;3.58;;
52041;SDS011;38052;45.944;13.624;2023-06-19T05:12:28;4.38;;;3.00;;
52041;SDS011;38052;45.944;13.624;2023-06-19T05:14:54;7.20;;;2.78;;
52041;SDS011;38052;45.944;13.624;2023-06-19T05:17:21;5.95;;;2.97;;
52041;SDS011;38052;45.944;13.624;2023-06-19T05:19:47;5.95;;;3.53;;
52041;SDS011;38052;45.944;13.624;2023-06-19T05:22:14;6.25;;;3.03;;
52041;SDS011;38052;45.944;13.624;2023-06-19T05:24:40;5.47;;;3.38;;
52041;SDS011;38052;45.944;13.624;2023-06-19T05:27:06;9.05;;;2.95;;
52041;SDS011;38052;45.944;13.624;2023-06-19T05:29:33;4.50;;;3.38;;
52041;SDS011;38052;45.944;13.624;2023-06-19T05:32:00;4.03;;;2.50;;
52041;SDS011;38052;45.944;13.624;2023-06-19T05:34:26;8.60;;;2.83;;
52041;SDS011;38052;45.944;13.624;2023-06-19T05:36:53;7.97;;;3.55;;
52041;SDS011;38052;45.944;13.624;2023-06-19T05:39:20;5.40;;;2.90;;
52041;SDS011;38052;45.944;13.624;2023-06-19T05:41:46;4.60;;;3.10;;
52041;SDS011;38052;45.944;13.624;2023-06-19T05:44:13;7.18;;;3.20;;
52041;SDS011;38052;45.944;13.624;2023-06-19T05:46:41;9.95;;;3.60;;
52041;SDS011;38052;45.944;13.624;2023-06-19T05:49:08;9.27;;;3.40;;
52041;SDS011;38052;45.944;13.624;2023-06-19T05:51:34;8.57;;;3.22;;
52041;SDS011;38052;45.944;13.624;2023-06-19T05:54:01;10.25;;;3.22;;
52041;SDS011;38052;45.944;13.624;2023-06-19T05:56:32;6.25;;;3.28;;
52041;SDS011;38052;45.944;13.624;2023-06-19T05:58:58;5.07;;;3.28;;
52041;SDS011;38052;45.944;13.624;2023-06-19T06:01:25;6.35;;;3.42;;
52041;SDS011;38052;45.944;13.624;2023-06-19T06:03:54;8.55;;;3.50;;
52041;SDS011;38052;45.944;13.624;2023-06-19T06:06:21;5.15;;;3.22;;
52041;SDS011;38052;45.944;13.624;2023-06-19T06:08:47;5.50;;;3.47;;
52041;SDS011;38052;45.944;13.624;2023-06-19T06:11:14;6.05;;;3.30;;
52041;SDS011;38052;45.944;13.624;2023-06-19T06:13:41;7.82;;;3.60;;
52041;SDS011;38052;45.944;13.624;2023-06-19T06:16:07;5.35;;;3.70;;
52041;SDS011;38052;45.944;13.624;2023-06-19T06:18:33;11.93;;;4.07;;
52041;SDS011;38052;45.944;13.624;2023-06-19T06:21:00;6.25;;;3.45;;
52041;SDS011;38052;45.944;13.624;2023-06-19T06:23:26;8.50;;;3.65;;
52041;SDS011;38052;45.944;13.624;2023-06-19T06:25:52;4.00;;;3.40;;
52041;SDS011;38052;45.944;13.624;2023-06-19T06:28:19;8.10;;;4.13;;
52041;SDS011;38052;45.944;13.624;2023-06-19T06:30:46;5.28;;;3.17;;
52041;SDS011;38052;45.944;13.624;2023-06-19T06:33:13;6.35;;;3.67;;
52041;SDS011;38052;45.944;13.624;2023-06-19T06:35:39;9.18;;;3.53;;
52041;SDS011;38052;45.944;13.624;2023-06-19T06:38:05;7.25;;;3.50;;
52041;SDS011;38052;45.944;13.624;2023-06-19T06:40:32;12.00;;;3.80;;
52041;SDS011;38052;45.944;13.624;2023-06-19T06:42:59;7.68;;;3.45;;
52041;SDS011;38052;45.944;13.624;2023-06-19T06:45:25;9.70;;;3.50;;
52041;SDS011;38052;45.944;13.624;2023-06-19T06:47:52;6.18;;;2.95;;
52041;SDS011;38052;45.944;13.624;2023-06-19T06:50:18;7.20;;;3.55;;
52041;SDS011;38052;45.944;13.624;2023-06-19T06:52:44;7.03;;;3.17;;
52041;SDS011;38052;45.944;13.624;2023-06-19T06:55:11;10.93;;;2.97;;
52041;SDS011;38052;45.944;13.624;2023-06-19T06:57:37;5.78;;;2.95;;
52041;SDS011;38052;45.944;13.624;2023-06-19T07:00:04;8.70;;;3.05;;
52041;SDS011;38052;45.944;13.624;2023-06-19T07:02:31;4.40;;;3.20;;
52041;SDS011;38052;45.944;13.624;2023-06-19T07:04:57;4.95;;;3.22;;
52041;SDS011;38052;45.944;13.624;2023-06-19T07:07:23;7.85;;;3.30;;
52041;SDS011;38052;45.944;13.624;2023-06-19T07:09:50;7.68;;;3.65;;
52041;SDS011;38052;45.944;13.624;2023-06-19T07:12:16;7.60;;;3.13;;
52041;SDS011;38052;45.944;13.624;2023-06-19T07:14:42;6.28;;;3.30;;
52041;SDS011;38052;45.944;13.624;2023-06-19T07:17:09;5.97;;;3.67;;
52041;SDS011;38052;45.944;13.624;2023-06-19T07:19:36;5.90;;;3.38;;
52041;SDS011;38052;45.944;13.624;2023-06-19T07:22:02;7.45;;;3.22;;
52041;SDS011;38052;45.944;13.624;2023-06-19T07:24:29;5.97;;;3.38;;
52041;SDS011;38052;45.944;13.624;2023-06-19T07:26:56;5.10;;;2.78;;
52041;SDS011;38052;45.944;13.624;2023-06-19T07:29:22;5.35;;;3.55;;
52041;SDS011;38052;45.944;13.624;2023-06-19T07:31:49;4.45;;;2.92;;
52041;SDS011;38052;45.944;13.624;2023-06-19T07:34:15;4.03;;;3.22;;
52041;SDS011;38052;45.944;13.624;2023-06-19T07:36:41;6.03;;;3.25;;
52041;SDS011;38052;45.944;13.624;2023-06-19T07:39:08;10.05;;;4.10;;
52041;SDS011;38052;45.944;13.624;2023-06-19T07:41:34;4.40;;;3.25;;
52041;SDS011;38052;45.944;13.624;2023-06-19T07:44:01;7.70;;;3.63;;
52041;SDS011;38052;45.944;13.624;2023-06-19T07:46:27;5.63;;;3.20;;
52041;SDS011;38052;45.944;13.624;2023-06-19T07:48:54;5.15;;;2.70;;
52041;SDS011;38052;45.944;13.624;2023-06-19T07:51:20;4.65;;;2.95;;
52041;SDS011;38052;45.944;13.624;2023-06-19T07:53:47;5.65;;;3.40;;
52041;SDS011;38052;45.944;13.624;2023-06-19T07:56:13;10.32;;;3.40;;
52041;SDS011;38052;45.944;13.624;2023-06-19T07:58:40;14.55;;;3.50;;
52041;SDS011;38052;45.944;13.624;2023-06-19T08:01:06;8.30;;;3.17;;
52041;SDS011;38052;45.944;13.624;2023-06-19T08:03:33;8.73;;;3.72;;
52041;SDS011;38052;45.944;13.624;2023-06-19T08:06:00;6.20;;;3.47;;
52041;SDS011;38052;45.944;13.624;2023-06-19T08:08:26;3.80;;;2.85;;
52041;SDS011;38052;45.944;13.624;2023-06-19T08:10:52;7.40;;;3.05;;
52041;SDS011;38052;45.944;13.624;2023-06-19T08:13:19;4.45;;;2.92;;
52041;SDS011;38052;45.944;13.624;2023-06-19T08:15:45;4.78;;;2.53;;
52041;SDS011;38052;45.944;13.624;2023-06-19T08:18:12;6.85;;;2.60;;
52041;SDS011;38052;45.944;13.624;2023-06-19T08:20:38;3.08;;;2.72;;
52041;SDS011;38052;45.944;13.624;2023-06-19T08:23:04;6.55;;;3.72;;
52041;SDS011;38052;45.944;13.624;2023-06-19T08:25:30;3.40;;;2.45;;
52041;SDS011;38052;45.944;13.624;2023-06-19T08:27:57;9.38;;;3.65;;
52041;SDS011;38052;45.944;13.624;2023-06-19T08:30:23;5.47;;;3.35;;
52041;SDS011;38052;45.944;13.624;2023-06-19T08:32:50;5.00;;;3.30;;
52041;SDS011;38052;45.944;13.624;2023-06-19T08:35:16;5.40;;;2.47;;
52041;SDS011;38052;45.944;13.624;2023-06-19T08:37:43;3.58;;;2.72;;
52041;SDS011;38052;45.944;13.624;2023-06-19T08:40:09;3.70;;;2.83;;
52041;SDS011;38052;45.944;13.624;2023-06-19T08:42:36;4.57;;;3.58;;
52041;SDS011;38052;45.944;13.624;2023-06-19T08:45:04;5.47;;;2.92;;
52041;SDS011;38052;45.944;13.624;2023-06-19T08:47:31;7.60;;;2.50;;
52041;SDS011;38052;45.944;13.624;2023-06-19T08:49:59;5.28;;;2.95;;
52041;SDS011;38052;45.944;13.624;2023-06-19T08:52:25;3.38;;;2.13;;
52041;SDS011;38052;45.944;13.624;2023-06-19T08:54:51;3.50;;;2.65;;
52041;SDS011;38052;45.944;13.624;2023-06-19T08:57:17;4.63;;;3.03;;
52041;SDS011;38052;45.944;13.624;2023-06-19T08:59:50;5.65;;;2.85;;
52041;SDS011;38052;45.944;13.624;2023-06-19T09:02:16;5.28;;;3.15;;
52041;SDS011;38052;45.944;13.624;2023-06-19T09:04:43;7.60;;;3.10;;
52041;SDS011;38052;45.944;13.624;2023-06-19T09:07:09;6.13;;;3.22;;
52041;SDS011;38052;45.944;13.624;2023-06-19T09:09:35;5.72;;;3.60;;
52041;SDS011;38052;45.944;13.624;2023-06-19T09:12:03;5.90;;;3.47;;
52041;SDS011;38052;45.944;13.624;2023-06-19T09:17:05;4.57;;;2.90;;
52041;SDS011;38052;45.944;13.624;2023-06-19T09:19:32;4.00;;;3.15;;
52041;SDS011;38052;45.944;13.624;2023-06-19T09:24:34;4.40;;;3.20;;
52041;SDS011;38052;45.944;13.624;2023-06-19T09:27:11;6.05;;;3.08;;
52041;SDS011;38052;45.944;13.624;2023-06-19T09:29:43;6.03;;;4.20;;
52041;SDS011;38052;45.944;13.624;2023-06-19T09:32:20;5.57;;;3.22;;
52041;SDS011;38052;45.944;13.624;2023-06-19T09:34:47;7.93;;;3.17;;
52041;SDS011;38052;45.944;13.624;2023-06-19T09:37:14;13.13;;;3.35;;
52041;SDS011;38052;45.944;13.624;2023-06-19T09:39:41;6.93;;;3.38;;
52041;SDS011;38052;45.944;13.624;2023-06-19T09:42:08;3.80;;;3.13;;
52041;SDS011;38052;45.944;13.624;2023-06-19T09:44:40;3.58;;;2.83;;
52041;SDS011;38052;45.944;13.624;2023-06-19T09:47:14;4.03;;;3.15;;
52041;SDS011;38052;45.944;13.624;2023-06-19T09:49:43;4.07;;;3.28;;
52041;SDS011;38052;45.944;13.624;2023-06-19T09:52:13;4.95;;;3.83;;
52041;SDS011;38052;45.944;13.624;2023-06-19T09:54:40;3.95;;;3.42;;
52041;SDS011;38052;45.944;13.624;2023-06-19T09:57:08;10.40;;;4.05;;
52041;SDS011;38052;45.944;13.624;2023-06-19T09:59:36;6.40;;;4.05;;
52041;SDS011;38052;45.944;13.624;2023-06-19T10:02:02;7.47;;;3.90;;
52041;SDS011;38052;45.944;13.624;2023-06-19T10:04:30;3.90;;;3.22;;
52041;SDS011;38052;45.944;13.624;2023-06-19T10:06:56;4.85;;;3.33;;
52041;SDS011;38052;45.944;13.624;2023-06-19T10:09:23;5.07;;;3.40;;
52041;SDS011;38052;45.944;13.624;2023-06-19T10:11:50;5.18;;;3.63;;
52041;SDS011;38052;45.944;13.624;2023-06-19T10:14:20;4.90;;;3.75;;
52041;SDS011;38052;45.944;13.624;2023-06-19T10:16:46;4.85;;;3.78;;
52041;SDS011;38052;45.944;13.624;2023-06-19T10:19:16;3.92;;;3.33;;
52041;SDS011;38052;45.944;13.624;2023-06-19T10:24:13;5.78;;;4.00;;
52041;SDS011;38052;45.944;13.624;2023-06-19T10:26:40;4.57;;;3.28;;
52041;SDS011;38052;45.944;13.624;2023-06-19T10:29:16;7.40;;;3.50;;
52041;SDS011;38052;45.944;13.624;2023-06-19T10:31:42;5.18;;;3.45;;
52041;SDS011;38052;45.944;13.624;2023-06-19T10:34:10;4.20;;;3.35;;
52041;SDS011;38052;45.944;13.624;2023-06-19T10:36:37;5.28;;;3.65;;
52041;SDS011;38052;45.944;13.624;2023-06-19T10:39:03;8.18;;;3.72;;
52041;SDS011;38052;45.944;13.624;2023-06-19T10:41:30;5.07;;;3.33;;
52041;SDS011;38052;45.944;13.624;2023-06-19T10:43:58;8.30;;;3.65;;
52041;SDS011;38052;45.944;13.624;2023-06-19T10:46:28;4.05;;;3.20;;
52041;SDS011;38052;45.944;13.624;2023-06-19T10:48:55;4.32;;;3.63;;
52041;SDS011;38052;45.944;13.624;2023-06-19T10:51:26;4.18;;;3.28;;
52041;SDS011;38052;45.944;13.624;2023-06-19T10:53:56;8.32;;;3.95;;
52041;SDS011;38052;45.944;13.624;2023-06-19T10:56:23;6.28;;;3.15;;
52041;SDS011;38052;45.944;13.624;2023-06-19T10:58:59;7.35;;;3.10;;
52041;SDS011;38052;45.944;13.624;2023-06-19T11:01:36;4.13;;;3.72;;
52041;SDS011;38052;45.944;13.624;2023-06-19T11:04:04;4.07;;;3.65;;
52041;SDS011;38052;45.944;13.624;2023-06-19T11:06:31;4.05;;;2.90;;
52041;SDS011;38052;45.944;13.624;2023-06-19T11:08:57;5.35;;;3.30;;
52041;SDS011;38052;45.944;13.624;2023-06-19T11:11:34;7.20;;;3.30;;
52041;SDS011;38052;45.944;13.624;2023-06-19T11:14:00;6.03;;;3.78;;
52041;SDS011;38052;45.944;13.624;2023-06-19T11:16:27;4.32;;;3.50;;
52041;SDS011;38052;45.944;13.624;2023-06-19T11:18:56;5.50;;;3.78;;
52041;SDS011;38052;45.944;13.624;2023-06-19T11:21:29;4.72;;;3.35;;
52041;SDS011;38052;45.944;13.624;2023-06-19T11:23:57;6.45;;;3.58;;
52041;SDS011;38052;45.944;13.624;2023-06-19T11:26:24;9.52;;;4.03;;
52041;SDS011;38052;45.944;13.624;2023-06-19T11:28:51;4.28;;;3.60;;
52041;SDS011;38052;45.944;13.624;2023-06-19T11:31:17;7.85;;;3.53;;
52041;SDS011;38052;45.944;13.624;2023-06-19T11:33:57;4.45;;;3.42;;
52041;SDS011;38052;45.944;13.624;2023-06-19T11:36:24;5.10;;;3.50;;
52041;SDS011;38052;45.944;13.624;2023-06-19T11:38:51;5.47;;;3.78;;
52041;SDS011;38052;45.944;13.624;2023-06-19T11:41:24;4.68;;;3.33;;
52041;SDS011;38052;45.944;13.624;2023-06-19T11:43:57;5.07;;;3.80;;
52041;SDS011;38052;45.944;13.624;2023-06-19T11:46:28;4.47;;;3.50;;
52041;SDS011;38052;45.944;13.624;2023-06-19T11:48:55;7.43;;;3.95;;
52041;SDS011;38052;45.944;13.624;2023-06-19T11:51:21;6.90;;;3.92;;
52041;SDS011;38052;45.944;13.624;2023-06-19T11:53:47;7.70;;;4.40;;
52041;SDS011;38052;45.944;13.624;2023-06-19T11:56:14;6.32;;;3.40;;
52041;SDS011;38052;45.944;13.624;2023-06-19T11:58:41;8.50;;;3.70;;
52041;SDS011;38052;45.944;13.624;2023-06-19T12:01:10;4.32;;;3.92;;
52041;SDS011;38052;45.944;13.624;2023-06-19T12:03:36;4.55;;;4.13;;
52041;SDS011;38052;45.944;13.624;2023-06-19T12:06:02;6.45;;;3.42;;
52041;SDS011;38052;45.944;13.624;2023-06-19T12:08:28;8.93;;;3.80;;
52041;SDS011;38052;45.944;13.624;2023-06-19T12:10:55;5.90;;;3.53;;
52041;SDS011;38052;45.944;13.624;2023-06-19T12:13:21;7.22;;;4.82;;
52041;SDS011;38052;45.944;13.624;2023-06-19T12:15:48;6.43;;;3.60;;
52041;SDS011;38052;45.944;13.624;2023-06-19T12:18:14;6.60;;;3.78;;
52041;SDS011;38052;45.944;13.624;2023-06-19T12:20:40;4.72;;;3.72;;
52041;SDS011;38052;45.944;13.624;2023-06-19T12:25:43;8.88;;;4.30;;
52041;SDS011;38052;45.944;13.624;2023-06-19T12:28:09;5.85;;;4.15;;
52041;SDS011;38052;45.944;13.624;2023-06-19T12:30:36;5.07;;;3.85;;
52041;SDS011;38052;45.944;13.624;2023-06-19T12:33:03;6.68;;;4.20;;
52041;SDS011;38052;45.944;13.624;2023-06-19T12:35:29;5.82;;;4.05;;
52041;SDS011;38052;45.944;13.624;2023-06-19T12:37:55;6.75;;;3.95;;
52041;SDS011;38052;45.944;13.624;2023-06-19T12:40:22;4.20;;;3.80;;
52041;SDS011;38052;45.944;13.624;2023-06-19T12:42:48;5.63;;;3.53;;
52041;SDS011;38052;45.944;13.624;2023-06-19T12:45:15;5.80;;;4.30;;
52041;SDS011;38052;45.944;13.624;2023-06-19T12:47:42;4.93;;;3.70;;
52041;SDS011;38052;45.944;13.624;2023-06-19T12:50:08;7.47;;;4.40;;
52041;SDS011;38052;45.944;13.624;2023-06-19T12:52:36;9.68;;;4.30;;
52041;SDS011;38052;45.944;13.624;2023-06-19T12:55:03;5.10;;;4.40;;
52041;SDS011;38052;45.944;13.624;2023-06-19T12:57:29;6.63;;;4.40;;
52041;SDS011;38052;45.944;13.624;2023-06-19T12:59:55;5.30;;;3.72;;
52041;SDS011;38052;45.944;13.624;2023-06-19T13:02:22;4.93;;;4.28;;
52041;SDS011;38052;45.944;13.624;2023-06-19T13:04:48;5.45;;;4.40;;
52041;SDS011;38052;45.944;13.624;2023-06-19T13:07:14;6.90;;;4.20;;
52041;SDS011;38052;45.944;13.624;2023-06-19T13:09:40;9.25;;;4.90;;
52041;SDS011;38052;45.944;13.624;2023-06-19T13:12:07;6.72;;;5.10;;
52041;SDS011;38052;45.944;13.624;2023-06-19T13:14:33;8.50;;;4.65;;
52041;SDS011;38052;45.944;13.624;2023-06-19T13:16:59;5.25;;;3.85;;
52041;SDS011;38052;45.944;13.624;2023-06-19T13:19:25;7.28;;;4.38;;
52041;SDS011;38052;45.944;13.624;2023-06-19T13:21:52;5.35;;;4.13;;
52041;SDS011;38052;45.944;13.624;2023-06-19T13:24:18;5.95;;;4.65;;
52041;SDS011;38052;45.944;13.624;2023-06-19T13:26:45;7.95;;;4.72;;
52041;SDS011;38052;45.944;13.624;2023-06-19T13:29:12;7.78;;;4.80;;
52041;SDS011;38052;45.944;13.624;2023-06-19T13:31:38;6.40;;;4.32;;
52041;SDS011;38052;45.944;13.624;2023-06-19T13:34:04;7.70;;;4.22;;
52041;SDS011;38052;45.944;13.624;2023-06-19T13:36:31;8.23;;;4.45;;
52041;SDS011;38052;45.944;13.624;2023-06-19T13:38:57;5.03;;;4.53;;
52041;SDS011;38052;45.944;13.624;2023-06-19T13:41:23;4.60;;;3.38;;
52041;SDS011;38052;45.944;13.624;2023-06-19T13:43:50;7.60;;;5.10;;
52041;SDS011;38052;45.944;13.624;2023-06-19T13:46:18;8.43;;;6.18;;
52041;SDS011;38052;45.944;13.624;2023-06-19T13:48:46;6.22;;;4.45;;
52041;SDS011;38052;45.944;13.624;2023-06-19T13:51:15;8.32;;;4.72;;
52041;SDS011;38052;45.944;13.624;2023-06-19T13:53:41;6.82;;;4.70;;
52041;SDS011;38052;45.944;13.624;2023-06-19T13:56:08;9.55;;;5.15;;
52041;SDS011;38052;45.944;13.624;2023-06-19T13:58:34;7.60;;;5.05;;
52041;SDS011;38052;45.944;13.624;2023-06-19T14:01:00;6.93;;;5.00;;
52041;SDS011;38052;45.944;13.624;2023-06-19T14:03:26;7.95;;;4.93;;
52041;SDS011;38052;45.944;13.624;2023-06-19T14:05:53;5.20;;;4.70;;
52041;SDS011;38052;45.944;13.624;2023-06-19T14:08:20;6.95;;;4.60;;
52041;SDS011;38052;45.944;13.624;2023-06-19T14:10:46;5.85;;;4.75;;
52041;SDS011;38052;45.944;13.624;2023-06-19T14:13:13;5.78;;;4.82;;
52041;SDS011;38052;45.944;13.624;2023-06-19T14:15:39;6.50;;;5.00;;
52041;SDS011;38052;45.944;13.624;2023-06-19T14:18:05;7.28;;;5.32;;
52041;SDS011;38052;45.944;13.624;2023-06-19T14:20:31;6.25;;;5.05;;
52041;SDS011;38052;45.944;13.624;2023-06-19T14:22:58;7.50;;;5.07;;
52041;SDS011;38052;45.944;13.624;2023-06-19T14:25:24;4.82;;;4.38;;
52041;SDS011;38052;45.944;13.624;2023-06-19T14:27:50;11.57;;;5.32;;
52041;SDS011;38052;45.944;13.624;2023-06-19T14:30:17;9.85;;;6.05;;
52041;SDS011;38052;45.944;13.624;2023-06-19T14:32:43;5.53;;;5.03;;
52041;SDS011;38052;45.944;13.624;2023-06-19T14:35:09;5.75;;;5.20;;
52041;SDS011;38052;45.944;13.624;2023-06-19T14:37:36;6.53;;;4.75;;
52041;SDS011;38052;45.944;13.624;2023-06-19T14:40:02;5.55;;;5.05;;
52041;SDS011;38052;45.944;13.624;2023-06-19T14:42:28;5.70;;;4.75;;